Pescara - LIBP

Metar : METAR LIBP 210950Z 21006KT 9999 OVC020 08/06 Q1015=

Taf : TAF LIBP 210500Z 2106/2206 VRB05KT 9999 SCT030 BECMG 2107/2109 34010KT TEMPO 2109/2118 RA=

 Scopri come leggere i bollettini codificati...


Storico

LIBP 210950Z 21006KT 9999 OVC020 08/06 Q1015
LIBP 210850Z 21004KT 9999 BKN015 08/06 Q1014
LIBP 210750Z 21004KT 9999 BKN015 07/06 Q1014
LIBP 210650Z 21003KT 9999 BKN015 07/06 Q1014
LIBP 210550Z AUTO 21004KT 9999 -DZ OVC015/// 07/06 Q1014
LIBP 210450Z AUTO 22004KT 9999 -RA OVC012/// 07/06 Q1014
LIBP 210350Z AUTO 21004KT 9999 -RA OVC010/// 07/06 Q1014
LIBP 210304Z AUTO VRB02KT 9999 DZ OVC009/// 07/06 Q1014
LIBP 210250Z AUTO VRB02KT 9999 OVC008/// 07/06 Q1014
LIBP 210150Z AUTO VRB02KT 5000 -RA OVC007/// 07/07 Q1014
LIBP 210050Z AUTO 23002KT 4400 -DZ BR OVC009/// 07/06 Q1014
LIBP 202350Z AUTO 22003KT 9000 OVC009/// 07/07 Q1014
LIBP 202250Z AUTO VRB02KT 8000 BKN011/// OVC018/// 07/07 Q1015
LIBP 202150Z 25002KT 6000 RA BKN015 08/07 Q1014
LIBP 202050Z 26002KT 9999 SCT015 SCT050 08/07 Q1014
LIBP 201950Z VRB02KT 9999 BKN020 08/07 Q1014
LIBP 201850Z 30003KT 180V350 8000 -RA BKN037 08/07 Q1014 RESHRA
LIBP 201750Z VRB01KT 9999 -RA BKN022 09/06 Q1014
LIBP 201650Z VRB02KT 9999 BKN042 09/06 Q1014
LIBP 201550Z 34003KT 300V360 9999 FEW020 BKN045 09/06 Q1014
LIBP 201450Z 01004KT 330V060 9999 FEW020 BKN045 09/06 Q1014
LIBP 201350Z 02007KT 9999 FEW030 BKN080 10/06 Q1014
LIBP 201250Z 03005KT 360V060 9999 FEW030 SCT080 10/05 Q1014
LIBP 201150Z 02003KT 310V050 9999 SCT030 SCT080 10/05 Q1014
LIBP 201050Z VRB02KT 9999 FEW020 SCT050 09/05 Q1015
LIBP 200950Z VRB02KT 9999 FEW040 08/04 Q1015
LIBP 200850Z 21003KT 9999 FEW040 07/04 Q1015
LIBP 200750Z 26003KT 9999 BKN100 06/03 Q1014
LIBP 200650Z 24002KT 9999 BKN100 06/03 Q1014
LIBP 200550Z AUTO 21005KT 9999 FEW015/// BKN110/// 05/03 Q1014
LIBP 200450Z AUTO 22005KT 9999 BKN110/// BKN150/// 05/04 Q1014
LIBP 200350Z AUTO 23004KT 9999 SCT018/// BKN021/// 07/04 Q1014
LIBP 200250Z AUTO 26002KT 9999 BKN021/// OVC045/// 07/05 Q1014
LIBP 200150Z AUTO 00000KT 9999 BKN018/// OVC047/// 08/05 Q1014
LIBP 200050Z AUTO VRB01KT 9999 OVC016/// 07/06 Q1014
LIBP 200015Z AUTO 23003KT 9999 OVC015/// 08/06 Q1014
LIBP 192350Z AUTO 22004KT 9999 BKN014/// OVC025/// 07/06 Q1014
LIBP 192250Z AUTO VRB02KT 9999 SCT013/// OVC026/// 08/06 Q1014
LIBP 192150Z VRB02KT 9999 SCT020 BKN060 08/06 Q1014
LIBP 192050Z VRB01KT 9999 SCT035 BKN060 08/06 Q1014
LIBP 191950Z VRB02KT 9999 FEW030 BKN060 08/06 Q1014
LIBP 191850Z VRB01KT 9999 SCT030 SCT050 09/07 Q1014
LIBP 191750Z 05003KT 360V070 9999 SCT040 BKN090 09/07 Q1013
LIBP 191650Z 12004KT 9999 SCT020 BKN080 09/07 Q1013
LIBP 191550Z 34004KT 9999 SCT035 BKN090 10/07 Q1013
LIBP 191450Z 36004KT 320V040 9999 FEW020 BKN050 11/07 Q1013
LIBP 191350Z 36005KT 320V040 9999 BKN040 10/07 Q1013
LIBP 191250Z 35006KT 320V020 9999 BKN035 10/07 Q1014
LIBP 191150Z 02007KT 9999 BKN035 11/06 Q1014
LIBP 191050Z 01005KT 330V040 9999 BKN030 11/07 Q1015
LIBP 190950Z AUTO VRB03KT 9999 BKN027/// 10/06 Q1015
LIBP 190850Z AUTO 23005KT 9999 SCT028/// 09/05 Q1015
LIBP 190750Z 23005KT 9999 SCT020 07/05 Q1014
LIBP 190650Z 23003KT 9999 FEW018 BKN025 08/05 Q1014
LIBP 190550Z AUTO 23004KT 9999 SCT017/// BKN043/// 07/05 Q1014
LIBP 190450Z AUTO 25003KT 9999 FEW017/// OVC034/// 08/05 Q1014
LIBP 190350Z AUTO 21004KT 9999 SCT016/// OVC027/// 07/05 Q1014
LIBP 190250Z AUTO 25003KT 9999 FEW016/// OVC027/// 07/06 Q1014
LIBP 190158Z AUTO VRB01KT 9999 BKN012/// BKN042/// 07/05 Q1014
LIBP 190150Z AUTO 27003KT 9999 FEW012/// BKN042/// 07/06 Q1014
LIBP 190050Z AUTO 21004KT 9999 SCT013/// OVC023/// 08/06 Q1014
LIBP 182350Z AUTO 22005KT 9999 BKN013/// BKN029/// BKN071/// 08/06 Q1014
LIBP 182250Z AUTO 21004KT 9999 OVC011/// 09/07 Q1015
LIBP 182150Z 20003KT 170V240 9999 FEW015 SCT060 08/07 Q1014
LIBP 182050Z 20003KT 180V250 9999 FEW020 SCT060 08/06 Q1014
LIBP 181950Z 20006KT 9999 FEW020 SCT080 08/06 Q1014
LIBP 181850Z 25004KT 220V300 9999 SCT020 BKN070 10/07 Q1014
LIBP 181750Z 33005KT 290V010 9999 SCT020 BKN080 10/08 Q1013
LIBP 181650Z 32003KT 250V030 9999 FEW015 SCT060 BKN090 11/08 Q1012
LIBP 181550Z 36007KT 320V040 9999 FEW060 BKN090 12/06 Q1012
LIBP 181450Z 04005KT 9999 SCT090 12/05 Q1011
LIBP 181350Z 04007KT 350V060 9999 FEW080 13/05 Q1011
LIBP 181250Z VRB04KT 9999 FEW080 16/03 Q1011
LIBP 181150Z 22012KT 9999 FEW080 16/04 Q1011
LIBP 181050Z 22014KT 9999 FEW090 16/03 Q1011
LIBP 180950Z 23014KT 9999 FEW070 15/03 Q1011
LIBP 180850Z 22017KT 9999 FEW060 14/03 Q1011
LIBP 180750Z 22016KT 9999 FEW060 13/03 Q1010
LIBP 180650Z 22017KT 9999 FEW080 13/03 Q1010
LIBP 180550Z AUTO 22014KT 9999 OVC230/// 13/03 Q1010
LIBP 180450Z AUTO 23009G19KT 9999 BKN230/// 13/03 Q1010
LIBP 180350Z AUTO 23012KT 9999 OVC230/// 13/03 Q1010
LIBP 180250Z AUTO 22013KT 9999 FEW096/// BKN220/// 13/03 Q1010
LIBP 180150Z AUTO 23011KT 9999 BKN230/// 13/03 Q1011
LIBP 180050Z AUTO 21014KT 9999 BKN240/// 12/04 Q1011
LIBP 172350Z AUTO 22014KT 9999 BKN230/// 13/03 Q1011
LIBP 172250Z AUTO 22007KT 9999 FEW085/// BKN240/// 11/03 Q1012
LIBP 172150Z 22009KT CAVOK 13/03 Q1012
LIBP 172050Z 23008KT CAVOK 12/03 Q1012
LIBP 171950Z 21010KT CAVOK 12/03 Q1013
LIBP 171850Z 25004KT 220V290 9999 SCT075 11/03 Q1013
LIBP 171750Z 19007KT CAVOK 11/03 Q1013
LIBP 171650Z 19006KT 160V220 CAVOK 12/03 Q1014

Informazioni elaborate utilizzando, tra l’altro, dati e prodotti del Servizio Meteorologico dell’Aeronautica Militare pubblicati sul sito www.meteoam.it e della National Oceanic and Atmospheric Administration (NOAA)

Ultimi caricamenti...


MM81627 Marina Militare MH-90A

 


MM81627 Marina Militare MH-90A

 


VFOD VF-52 Vigili del Fuoco AgustaBell AB-412

Questo sito non utilizza cookie di profilazione. Il sito utilizza cookie tecnici, di analisi anonima di prima parte e di terze parti per servizi di social network.